Time;durP1;ratioP1;P1;durP2;ratioP2;P2;SDS_P1;SDS_P2;PMS_P1;PMS_P2;Temp;Humidity;BMP_temperature;BMP_pressure;BME280_temperature;BME280_humidity;BME280_pressure;Samples;Min_cycle;Max_cycle;Signal;HPM_P1;HPM_P2
2022/06/07 00:00:38;;;;;;;50.88;25.83;;;;;;;14.36;83.36;101315.44;5033338;28;20461;-73
2022/06/07 00:03:04;;;;;;;53.20;25.27;;;;;;;14.34;83.35;101312.78;5033093;28;20029;-73
2022/06/07 00:05:30;;;;;;;55.42;25.85;;;;;;;14.35;83.02;101309.31;5032107;28;20489;-73
2022/06/07 00:07:56;;;;;;;50.78;24.85;;;;;;;14.36;82.54;101311.06;5033374;28;20025;-73
2022/06/07 00:10:23;;;;;;;50.65;25.38;;;;;;;14.34;83.18;101301.41;5032859;28;20403;-72
2022/06/07 00:12:49;;;;;;;53.30;25.98;;;;;;;14.35;82.94;101304.06;5032926;28;20485;-73
2022/06/07 00:15:14;;;;;;;52.45;25.42;;;;;;;14.34;83.48;101302.28;5032531;28;20048;-73
2022/06/07 00:17:40;;;;;;;48.17;24.92;;;;;;;14.34;82.91;101302.28;5032898;28;20480;-72
2022/06/07 00:20:07;;;;;;;54.40;25.83;;;;;;;14.34;83.01;101302.28;5031796;28;20539;-73
2022/06/07 00:22:34;;;;;;;53.72;26.10;;;;;;;14.34;82.61;101291.81;5032860;28;20025;-72
2022/06/07 00:24:59;;;;;;;52.55;25.95;;;;;;;14.34;82.94;101290.91;5032660;28;20539;-73
2022/06/07 00:27:25;;;;;;;53.63;27.20;;;;;;;14.34;83.17;101286.56;5031571;28;20029;-72
2022/06/07 00:29:51;;;;;;;51.50;24.48;;;;;;;14.35;80.54;101285.72;5031870;28;20021;-73
2022/06/07 00:32:19;;;;;;;58.83;28.17;;;;;;;14.32;83.00;101287.41;5032624;28;20378;-72
2022/06/07 00:34:45;;;;;;;57.03;28.02;;;;;;;14.33;83.14;101283.94;5032532;28;20028;-72
2022/06/07 00:37:10;;;;;;;57.10;27.25;;;;;;;14.30;83.26;101274.25;5032486;28;20025;-72
2022/06/07 00:39:35;;;;;;;55.95;27.77;;;;;;;14.30;82.72;101279.50;5032393;28;20539;-72
2022/06/07 00:42:01;;;;;;;53.03;27.55;;;;;;;14.29;83.16;101275.13;5030705;28;20033;-72
2022/06/07 00:44:26;;;;;;;58.72;27.70;;;;;;;14.31;83.20;101269.88;5032199;28;20037;-72
2022/06/07 00:47:02;;;;;;;56.63;27.10;;;;;;;14.30;83.15;101265.53;5032208;28;20033;-72
2022/06/07 00:49:32;;;;;;;59.67;27.67;;;;;;;14.29;82.83;101274.25;5032293;28;20286;-72
2022/06/07 00:51:58;;;;;;;57.67;26.83;;;;;;;14.30;82.29;101271.66;5031718;28;20030;-72
2022/06/07 00:54:30;;;;;;;54.85;27.08;;;;;;;14.28;82.67;101273.38;5031890;28;20030;-72
2022/06/07 00:56:56;;;;;;;52.45;25.50;;;;;;;14.27;82.25;101263.75;5026907;28;20079;-72
2022/06/07 00:59:22;;;;;;;49.05;24.85;;;;;;;14.26;81.48;101260.25;5031197;28;20025;-72
2022/06/07 01:01:47;;;;;;;50.33;25.83;;;;;;;14.23;82.00;101256.69;5032180;28;20036;-72
2022/06/07 01:04:12;;;;;;;48.03;23.27;;;;;;;14.22;80.55;101253.19;5031951;28;20018;-72
2022/06/07 01:12:26;;;;;;;47.30;22.67;;;;;;;14.21;81.46;101253.16;4969950;28;20069;-72
2022/06/07 01:14:52;;;;;;;42.72;23.35;;;;;;;14.20;81.42;101246.16;5006345;28;20068;-73
2022/06/07 01:17:19;;;;;;;44.05;23.38;;;;;;;14.19;81.23;101249.63;5031607;28;20095;-72
2022/06/07 01:19:45;;;;;;;42.47;22.80;;;;;;;14.19;81.25;101253.16;5031705;28;20040;-72
2022/06/07 01:22:10;;;;;;;43.88;22.70;;;;;;;14.21;81.26;101259.28;5031532;28;20025;-72
2022/06/07 01:24:36;;;;;;;45.10;23.20;;;;;;;14.21;81.21;101243.56;5030261;28;20052;-72
2022/06/07 01:27:02;;;;;;;39.72;21.80;;;;;;;14.21;80.74;101238.31;5030516;28;20025;-72
2022/06/07 01:29:28;;;;;;;40.95;20.88;;;;;;;14.20;79.98;101244.41;5030799;28;20079;-72
2022/06/07 01:31:54;;;;;;;35.90;19.83;;;;;;;14.20;79.89;101231.31;5031387;28;20385;-72
2022/06/07 01:34:20;;;;;;;35.00;18.30;;;;;;;14.21;78.65;101240.94;5029865;28;20030;-72
2022/06/07 01:36:45;;;;;;;40.83;19.05;;;;;;;14.18;79.59;101237.38;5031288;28;20029;-72
2022/06/07 01:41:54;;;;;;;37.08;19.27;;;;;;;14.19;79.73;101239.16;5031434;28;20041;-72
2022/06/07 01:44:21;;;;;;;39.80;19.50;;;;;;;14.13;79.99;101234.69;5031115;28;20389;-72
2022/06/07 01:46:47;;;;;;;36.53;20.02;;;;;;;14.16;80.10;101233.84;5031137;28;20032;-73
2022/06/07 01:49:12;;;;;;;36.75;19.85;;;;;;;14.13;80.44;101223.34;5030926;28;20017;-73
2022/06/07 01:51:38;;;;;;;34.22;18.92;;;;;;;14.13;80.39;101229.44;5030991;28;20033;-72
2022/06/07 01:54:03;;;;;;;37.15;20.05;;;;;;;14.11;79.82;101220.69;5029098;28;20083;-72
2022/06/07 01:56:28;;;;;;;33.00;17.98;;;;;;;14.13;79.81;101221.59;5031108;28;20029;-72
2022/06/07 01:58:54;;;;;;;38.00;19.50;;;;;;;14.12;80.49;101218.94;5030820;28;20033;-73
2022/06/07 02:01:19;;;;;;;36.25;19.35;;;;;;;14.10;80.14;101226.78;5030864;28;20034;-73
2022/06/07 02:03:45;;;;;;;37.10;18.88;;;;;;;14.07;79.94;101219.75;5029976;28;20507;-72
2022/06/07 02:06:12;;;;;;;35.67;18.90;;;;;;;14.06;79.73;101220.63;5031068;28;20029;-73
2022/06/07 02:08:40;;;;;;;35.03;18.80;;;;;;;14.05;79.51;101224.09;5029884;28;20044;-72
2022/06/07 02:11:12;;;;;;;33.55;17.55;;;;;;;14.04;79.58;101224.94;5030789;28;20104;-73
2022/06/07 02:13:38;;;;;;;31.27;17.08;;;;;;;14.05;79.11;101211.00;5030946;28;20030;-72
2022/06/07 02:16:04;;;;;;;30.50;17.17;;;;;;;14.02;79.08;101220.53;5030429;28;20567;-72
2022/06/07 02:18:29;;;;;;;29.60;15.80;;;;;;;14.02;78.35;101218.81;5030556;28;20030;-72
2022/06/07 02:20:57;;;;;;;29.13;15.90;;;;;;;13.99;78.37;101210.91;5030838;28;20033;-73
2022/06/07 02:23:23;;;;;;;27.55;14.73;;;;;;;13.96;78.31;101207.34;5029804;28;20025;-73
2022/06/07 02:25:51;;;;;;;24.45;14.45;;;;;;;13.95;77.81;101210.81;5030753;28;20571;-73
2022/06/07 02:28:19;;;;;;;27.63;15.43;;;;;;;13.93;77.98;101209.91;5030510;28;20026;-73
2022/06/07 02:30:45;;;;;;;30.00;15.68;;;;;;;13.91;78.75;101208.16;5030899;28;20025;-73
2022/06/07 02:33:11;;;;;;;29.63;14.23;;;;;;;13.92;78.23;101206.44;5029555;28;20492;-73
2022/06/07 02:35:39;;;;;;;26.95;13.93;;;;;;;13.94;77.95;101202.09;5029785;28;20112;-72
2022/06/07 02:38:05;;;;;;;22.30;13.27;;;;;;;13.94;77.42;101204.72;5030465;28;20117;-72
2022/06/07 02:40:30;;;;;;;24.23;14.02;;;;;;;13.92;77.33;101209.06;5030356;28;20075;-72
2022/06/07 02:42:56;;;;;;;23.85;13.27;;;;;;;13.91;77.56;101202.03;5030628;28;20029;-72
2022/06/07 02:45:21;;;;;;;26.25;13.40;;;;;;;13.92;77.71;101206.44;5030198;28;20053;-72
2022/06/07 02:47:47;;;;;;;21.98;12.75;;;;;;;13.91;77.50;101195.06;5029455;28;20448;-72
2022/06/07 02:50:12;;;;;;;23.48;13.15;;;;;;;13.89;77.30;101196.78;5030234;28;20133;-72
2022/06/07 02:52:38;;;;;;;25.10;13.13;;;;;;;13.91;77.12;101199.44;5029153;28;20551;-72
2022/06/07 02:55:03;;;;;;;22.73;12.55;;;;;;;13.87;77.25;101201.09;5030064;28;20021;-72
2022/06/07 02:57:29;;;;;;;23.70;12.77;;;;;;;13.87;77.62;101198.47;5030203;28;20544;-73
2022/06/07 02:59:54;;;;;;;25.35;12.32;;;;;;;13.87;77.21;101195.84;5030073;28;20014;-72
2022/06/07 03:02:19;;;;;;;19.65;11.85;;;;;;;13.87;77.03;101189.75;5029185;28;20116;-72
2022/06/07 03:04:45;;;;;;;20.27;12.15;;;;;;;13.86;76.55;101188.88;5030181;28;20026;-72
2022/06/07 03:07:10;;;;;;;21.48;11.65;;;;;;;13.85;76.37;101196.72;5030079;28;20100;-73
2022/06/07 03:09:35;;;;;;;20.58;11.40;;;;;;;13.85;76.60;101191.47;5029947;28;20104;-73
2022/06/07 03:12:02;;;;;;;23.25;11.38;;;;;;;13.82;76.75;101201.91;5030131;28;20022;-73
2022/06/07 03:14:28;;;;;;;19.27;11.27;;;;;;;13.79;76.65;101205.34;5031452;28;20040;-73
2022/06/07 03:16:53;;;;;;;21.35;11.27;;;;;;;13.77;76.76;101206.19;5033227;28;20389;-73
2022/06/07 03:19:18;;;;;;;23.30;11.27;;;;;;;13.76;77.50;101205.31;5033980;28;20060;-73
2022/06/07 03:21:44;;;;;;;19.30;11.30;;;;;;;13.76;76.67;101205.31;5033829;28;20112;-72
2022/06/07 03:24:09;;;;;;;21.52;11.15;;;;;;;13.76;76.62;101210.53;5033800;28;20481;-72
2022/06/07 03:26:35;;;;;;;19.02;11.23;;;;;;;13.76;76.39;101213.16;5033980;28;20021;-72
2022/06/07 03:29:00;;;;;;;18.65;10.32;;;;;;;13.78;76.39;101214.06;5033853;28;20025;-72
2022/06/07 03:31:25;;;;;;;19.13;10.02;;;;;;;13.80;75.71;101221.94;5032786;28;20021;-72
2022/06/07 03:33:51;;;;;;;17.85;11.30;;;;;;;13.76;76.00;101223.63;5033594;28;20025;-72
2022/06/07 03:36:22;;;;;;;21.00;10.95;;;;;;;13.74;76.35;101223.63;5032872;28;20061;-73
2022/06/07 03:38:48;;;;;;;22.98;10.98;;;;;;;13.73;76.19;101219.22;5033660;28;20061;-73
2022/06/07 03:41:22;;;;;;;21.13;11.10;;;;;;;13.73;76.35;101219.22;5032522;28;20491;-73
2022/06/07 03:43:48;;;;;;;22.75;10.48;;;;;;;13.70;76.45;101224.41;5027935;28;20523;-73
2022/06/07 03:46:18;;;;;;;18.67;10.63;;;;;;;13.66;76.08;101221.72;5516448;23;20029;-96
2022/06/07 03:48:50;;;;;;;16.92;10.30;;;;;;;13.65;76.45;101233.03;5038615;28;20092;-96
2022/06/07 03:51:18;;;;;;;19.67;10.15;;;;;;;13.68;76.25;101226.09;5042955;22;20173;-73
2022/06/07 03:53:44;;;;;;;21.08;12.02;;;;;;;13.65;76.40;101228.69;4996704;28;20501;-73
2022/06/07 03:56:11;;;;;;;17.20;10.18;;;;;;;13.63;76.49;101230.41;5004098;28;20075;-73
2022/06/07 03:58:39;;;;;;;17.80;10.70;;;;;;;13.67;76.29;101229.59;5003335;28;20049;-73
2022/06/07 04:01:07;;;;;;;18.20;10.82;;;;;;;13.65;76.56;101230.44;4993762;28;20140;-73
2022/06/07 04:03:33;;;;;;;19.15;10.93;;;;;;;13.64;76.32;101241.75;4993676;28;20053;-73
2022/06/07 04:06:00;;;;;;;19.17;10.25;;;;;;;13.67;75.59;101242.69;4993644;28;20027;-72
2022/06/07 04:08:25;;;;;;;20.10;10.85;;;;;;;13.66;76.63;101240.06;4993597;28;20026;-70
2022/06/07 04:10:57;;;;;;;17.38;10.63;;;;;;;13.67;76.29;101237.47;4992798;28;20045;-70
2022/06/07 04:13:26;;;;;;;20.08;10.90;;;;;;;13.65;76.59;101236.53;4995474;28;20115;-70
2022/06/07 04:15:53;;;;;;;19.27;10.45;;;;;;;13.68;76.27;101239.19;4993574;28;20029;-70
2022/06/07 04:18:18;;;;;;;18.98;10.55;;;;;;;13.65;76.27;101236.53;4991998;28;20026;-70
2022/06/07 04:20:44;;;;;;;20.42;10.88;;;;;;;13.63;76.53;101240.88;4993394;28;20486;-70
2022/06/07 04:23:16;;;;;;;21.55;10.93;;;;;;;13.62;76.30;101235.63;4992027;28;20057;-70
2022/06/07 04:25:42;;;;;;;20.40;11.15;;;;;;;13.61;76.76;101239.94;4991693;28;20104;-71
2022/06/07 04:28:08;;;;;;;21.80;11.55;;;;;;;13.63;76.50;101238.25;4992695;28;20385;-71
2022/06/07 04:30:33;;;;;;;23.27;11.88;;;;;;;13.64;76.86;101236.50;4993309;28;20434;-71
2022/06/07 04:32:59;;;;;;;22.38;11.70;;;;;;;13.66;76.76;101243.53;4993251;28;20038;-70
2022/06/07 04:35:25;;;;;;;22.95;12.45;;;;;;;13.66;76.73;101237.44;4993157;28;20478;-70
2022/06/07 04:37:53;;;;;;;22.15;10.82;;;;;;;13.67;76.47;101241.81;4993330;28;20053;-73
2022/06/07 04:40:19;;;;;;;21.10;12.02;;;;;;;13.69;76.59;101243.59;4993261;28;20049;-73
2022/06/07 04:42:44;;;;;;;24.45;12.07;;;;;;;13.65;77.33;101233.91;4992264;28;20026;-73
2022/06/07 04:45:14;;;;;;;23.67;11.90;;;;;;;13.70;76.35;101240.13;4992951;28;20402;-73
2022/06/07 04:47:40;;;;;;;;;;;;;;;13.78;76.30;101236.75;4993196;28;20437;-73
2022/06/07 04:50:06;;;;;;;24.33;11.30;;;;;;;13.68;77.24;101235.72;4992876;28;19917;-73
2022/06/07 04:52:32;;;;;;;21.08;11.30;;;;;;;13.69;77.02;101243.59;5029130;28;20056;-72
2022/06/07 04:54:57;;;;;;;21.23;12.55;;;;;;;13.69;77.29;101248.84;5031963;28;20034;-72
2022/06/07 04:57:23;;;;;;;25.20;12.40;;;;;;;13.68;77.73;101241.81;5029794;28;20488;-72
2022/06/07 04:59:48;;;;;;;26.45;12.00;;;;;;;13.71;76.37;101247.09;5040123;28;20103;-72
2022/06/07 05:02:14;;;;;;;24.35;12.68;;;;;;;13.69;77.48;101247.97;5051644;28;20040;-73
2022/06/07 05:04:39;;;;;;;24.20;12.82;;;;;;;13.68;77.45;101251.44;5051953;28;20476;-72
2022/06/07 05:07:04;;;;;;;24.75;12.88;;;;;;;13.69;77.66;101250.59;5051617;28;20549;-72
2022/06/07 05:09:30;;;;;;;25.40;12.35;;;;;;;13.69;77.53;101248.84;5051656;28;20036;-72
2022/06/07 05:11:55;;;;;;;25.58;12.90;;;;;;;13.70;77.79;101248.00;5038477;28;20053;-73
2022/06/07 05:14:21;;;;;;;24.20;12.85;;;;;;;13.71;77.45;101259.34;5051203;28;20063;-72
2022/06/07 05:16:48;;;;;;;27.77;13.98;;;;;;;13.72;77.84;101259.34;5051719;28;20025;-73
2022/06/07 05:19:14;;;;;;;25.40;13.25;;;;;;;13.73;78.17;101265.50;5033451;28;20108;-73
2022/06/07 05:21:41;;;;;;;27.85;13.18;;;;;;;13.73;78.26;101263.75;5051655;28;20079;-73
2022/06/07 05:24:07;;;;;;;25.75;13.77;;;;;;;13.72;77.03;101264.59;5033529;28;20464;-73
2022/06/07 05:26:37;;;;;;;29.55;14.52;;;;;;;13.71;77.88;101268.06;5037576;28;20036;-72
2022/06/07 05:29:04;;;;;;;26.40;13.10;;;;;;;13.73;77.16;101266.38;5049866;28;20035;-72
2022/06/07 05:31:29;;;;;;;26.63;13.15;;;;;;;13.78;76.96;101255.09;5051283;28;20025;-73
2022/06/07 05:33:54;;;;;;;26.75;13.27;;;;;;;13.80;77.02;101262.13;5051173;28;20043;-73
2022/06/07 05:36:20;;;;;;;26.95;13.63;;;;;;;13.79;77.72;101259.44;5051460;28;20017;-73
2022/06/07 05:38:46;;;;;;;26.88;12.88;;;;;;;13.82;77.31;101265.66;5033164;28;20057;-73
2022/06/07 05:41:19;;;;;;;22.30;12.25;;;;;;;13.87;76.36;101273.56;5045900;28;20033;-73
2022/06/07 05:43:45;;;;;;;29.30;14.55;;;;;;;13.85;76.29;101265.69;5048284;28;20165;-73
2022/06/07 05:46:11;;;;;;;24.95;13.13;;;;;;;13.89;76.94;101262.28;5041169;28;20567;-73
2022/06/07 05:48:36;;;;;;;27.85;14.50;;;;;;;13.86;77.86;101263.94;5029574;28;20032;-73
2022/06/07 05:51:02;;;;;;;32.22;14.45;;;;;;;13.86;77.06;101258.69;5050880;28;20518;-73
2022/06/07 05:53:28;;;;;;;27.95;14.80;;;;;;;13.89;77.15;101266.63;5050820;28;20443;-73
2022/06/07 05:55:54;;;;;;;28.05;13.50;;;;;;;13.91;76.49;101265.78;5045797;28;20061;-73
2022/06/07 05:58:19;;;;;;;27.13;13.80;;;;;;;13.94;77.62;101264.97;5045237;28;20029;-73
2022/06/07 06:00:46;;;;;;;30.20;15.00;;;;;;;13.92;77.69;101266.69;5033077;28;20377;-73
2022/06/07 06:03:12;;;;;;;28.60;14.88;;;;;;;13.93;77.79;101271.06;5042649;28;20108;-73
2022/06/07 06:05:43;;;;;;;29.38;14.73;;;;;;;13.93;78.14;101273.66;5032833;28;20603;-73
2022/06/07 06:11:10;;;;;;;36.45;14.93;;;;;;;13.95;78.08;101271.97;5050976;28;20048;-73
2022/06/07 06:13:36;;;;;;;32.72;16.35;;;;;;;13.95;79.31;101271.06;5037823;28;20091;-73
2022/06/07 06:16:04;;;;;;;37.97;17.00;;;;;;;13.99;79.03;101268.56;5050526;28;20491;-73
2022/06/07 06:18:30;;;;;;;37.83;17.40;;;;;;;14.01;79.87;101266.81;5050297;28;20078;-73
2022/06/07 06:20:55;;;;;;;39.28;17.75;;;;;;;14.03;80.10;101270.38;5050575;28;20752;-73
2022/06/07 06:23:21;;;;;;;41.42;17.90;;;;;;;14.09;80.08;101264.31;5050263;28;20282;-73
2022/06/07 06:25:46;;;;;;;40.10;18.77;;;;;;;14.14;80.31;101267.03;5050468;28;20594;-73
2022/06/07 06:28:11;;;;;;;39.88;18.50;;;;;;;14.20;80.79;101262.75;5038246;28;20036;-73
2022/06/07 06:30:37;;;;;;;40.13;18.92;;;;;;;14.27;80.15;101266.34;5050334;28;20025;-72
2022/06/07 06:33:02;;;;;;;42.35;19.08;;;;;;;14.35;80.57;101262.13;5050040;28;20044;-72
2022/06/07 06:35:27;;;;;;;38.15;18.98;;;;;;;14.41;78.40;101267.44;5032126;28;20063;-72
2022/06/07 06:37:53;;;;;;;37.25;19.58;;;;;;;14.46;79.35;101262.25;5038349;28;20040;-72
2022/06/07 06:40:18;;;;;;;42.08;19.58;;;;;;;14.48;80.00;101268.41;5050125;28;20025;-73
2022/06/07 06:42:43;;;;;;;38.67;19.60;;;;;;;14.52;80.00;101264.09;5032385;28;20040;-73
2022/06/07 06:45:09;;;;;;;42.13;19.73;;;;;;;14.53;80.18;101260.63;5042807;28;20017;-73
2022/06/07 06:47:35;;;;;;;41.05;19.35;;;;;;;14.59;78.20;101263.31;5043858;28;20043;-72
2022/06/07 06:50:00;;;;;;;43.53;19.75;;;;;;;14.62;80.03;101258.16;5049473;28;20111;-72
2022/06/07 06:52:25;;;;;;;40.75;20.02;;;;;;;14.66;80.46;101265.19;5037890;28;20061;-73
2022/06/07 06:54:51;;;;;;;42.88;19.52;;;;;;;14.73;80.42;101266.16;5048142;28;20384;-72
2022/06/07 06:57:16;;;;;;;48.17;21.27;;;;;;;14.78;80.49;101264.47;5050013;28;20099;-73
2022/06/07 06:59:41;;;;;;;41.90;20.70;;;;;;;14.87;79.66;101268.97;5050036;28;20056;-72
2022/06/07 07:02:09;;;;;;;43.08;22.40;;;;;;;14.91;79.73;101273.38;5050127;28;20109;-74
2022/06/07 07:04:34;;;;;;;40.70;20.88;;;;;;;14.99;80.02;101270.84;5039072;28;20056;-73
2022/06/07 07:07:00;;;;;;;39.90;20.60;;;;;;;15.05;79.87;101276.19;5044133;28;20515;-74
2022/06/07 07:09:28;;;;;;;43.05;21.02;;;;;;;15.10;79.69;101274.50;5050257;28;20052;-74
2022/06/07 07:11:54;;;;;;;43.33;21.17;;;;;;;15.16;79.65;101274.56;5050126;28;20029;-74
2022/06/07 07:14:19;;;;;;;43.72;21.13;;;;;;;15.21;79.66;101278.13;5049694;28;20082;-74
2022/06/07 07:16:49;;;;;;;41.22;20.67;;;;;;;15.24;79.48;101282.53;5050105;28;20025;-74
2022/06/07 07:19:15;;;;;;;43.20;22.05;;;;;;;15.23;79.22;101284.25;5042249;28;20033;-73
2022/06/07 07:21:44;;;;;;;46.10;22.73;;;;;;;15.22;78.56;101282.53;5049871;28;20017;-74
2022/06/07 07:24:19;;;;;;;40.97;20.00;;;;;;;15.22;78.55;101281.63;5049748;28;20021;-74
2022/06/07 07:26:45;;;;;;;40.83;20.40;;;;;;;15.25;79.49;101284.28;5039278;28;20412;-74
2022/06/07 07:29:13;;;;;;;37.15;20.15;;;;;;;15.28;80.13;101277.34;5049751;28;20021;-74
2022/06/07 07:31:39;;;;;;;40.92;21.83;;;;;;;15.33;79.83;101282.63;5049887;28;20029;-75
2022/06/07 07:34:08;;;;;;;40.38;20.90;;;;;;;15.41;79.59;101274.81;5023160;28;20397;-74
2022/06/07 07:36:35;;;;;;;45.67;23.05;;;;;;;15.51;81.56;101284.59;5038753;28;20025;-71
2022/06/07 07:39:01;;;;;;;40.00;21.17;;;;;;;15.59;79.85;101282.03;5035747;28;20034;-71
2022/06/07 07:41:29;;;;;;;45.50;23.55;;;;;;;15.66;79.98;101286.47;5009065;28;20018;-71
2022/06/07 07:43:57;;;;;;;44.53;24.47;;;;;;;15.71;78.49;101281.25;5034135;28;20029;-71
2022/06/07 07:46:27;;;;;;;50.33;24.15;;;;;;;15.71;77.84;101278.63;5029097;28;20033;-72
2022/06/07 07:48:52;;;;;;;49.10;24.77;;;;;;;15.70;77.92;101277.75;5020200;28;20017;-71
2022/06/07 07:51:24;;;;;;;48.05;24.88;;;;;;;15.72;79.05;101275.16;5046411;28;20071;-71
2022/06/07 07:53:51;;;;;;;49.28;27.02;;;;;;;15.73;78.84;101272.53;5049249;28;20036;-71
2022/06/07 07:56:16;;;;;;;52.08;26.35;;;;;;;15.75;79.65;101273.41;5031352;28;20526;-71
2022/06/07 07:58:42;;;;;;;49.85;28.00;;;;;;;15.76;79.21;101280.44;5033171;28;20034;-71
2022/06/07 08:01:10;;;;;;;51.85;28.45;;;;;;;15.77;80.26;101274.34;5040965;28;20111;-71
2022/06/07 08:03:38;;;;;;;53.20;27.85;;;;;;;15.80;79.30;101277.00;5052751;28;20150;-71
2022/06/07 08:06:05;;;;;;;52.55;27.13;;;;;;;15.86;80.28;101275.28;5053143;28;20099;-71
2022/06/07 08:08:30;;;;;;;63.70;33.30;;;;;;;15.88;79.53;101274.44;5052651;28;20549;-74
2022/06/07 08:10:56;;;;;;;57.42;30.35;;;;;;;15.92;80.37;101281.50;5052648;28;20108;-74
2022/06/07 08:13:21;;;;;;;53.95;29.60;;;;;;;15.93;79.58;101275.38;5047475;28;20020;-74
2022/06/07 08:15:46;;;;;;;60.40;30.77;;;;;;;15.95;80.04;101276.25;5038981;28;20056;-74
2022/06/07 08:18:12;;;;;;;57.65;30.45;;;;;;;15.99;80.19;101277.19;5023484;28;20083;-74
2022/06/07 08:20:38;;;;;;;58.08;32.78;;;;;;;16.05;80.43;101273.69;5037897;28;20028;-74
2022/06/07 08:23:06;;;;;;;60.42;32.05;;;;;;;16.09;79.77;101271.13;5052712;28;20036;-74
2022/06/07 08:25:32;;;;;;;61.53;32.08;;;;;;;16.17;80.78;101274.66;5050418;28;20142;-75
2022/06/07 08:27:58;;;;;;;58.97;31.52;;;;;;;16.26;81.82;101271.22;5031471;28;20539;-74
2022/06/07 08:30:23;;;;;;;62.38;33.95;;;;;;;16.31;79.76;101269.50;5040533;28;20032;-74
2022/06/07 08:32:48;;;;;;;59.22;33.72;;;;;;;16.35;79.24;101273.03;5039695;28;20025;-74
2022/06/07 08:38:01;;;;;;;61.28;34.88;;;;;;;16.38;77.10;101273.09;5052675;28;20040;-74
2022/06/07 08:40:29;;;;;;;62.45;36.13;;;;;;;16.41;77.68;101267.84;5043112;28;20056;-74
2022/06/07 08:42:58;;;;;;;58.55;33.88;;;;;;;16.42;76.18;101269.56;5028283;28;20030;-74
2022/06/07 08:45:26;;;;;;;;;;;;;;;16.46;76.98;101271.34;5034653;28;20029;-75
2022/06/07 08:48:14;;;;;;;59.55;34.53;;;;;;;16.49;77.88;101267.88;5016711;28;20410;-75
2022/06/07 08:51:03;;;;;;;58.15;35.38;;;;;;;16.56;78.51;101260.91;5035071;28;20493;-75
2022/06/07 08:53:33;;;;;;;65.88;37.33;;;;;;;16.71;79.58;101266.22;5017692;28;20044;-75
2022/06/07 08:56:02;;;;;;;66.18;36.97;;;;;;;16.83;80.61;101254.91;5032048;28;20060;-75
2022/06/07 08:58:38;;;;;;;71.40;37.58;;;;;;;16.88;77.51;101273.38;5028913;28;20136;-75
2022/06/07 09:01:23;;;;;;;64.75;37.28;;;;;;;16.96;79.69;101256.75;5030147;28;20084;-75
2022/06/07 09:04:11;;;;;;;62.25;35.72;;;;;;;16.99;76.41;101261.16;5024891;28;20549;-75
2022/06/07 09:06:44;;;;;;;64.50;35.10;;;;;;;17.01;76.80;101254.13;5031773;28;20025;-72
2022/06/07 09:09:11;;;;;;;59.30;34.60;;;;;;;17.01;76.18;101265.53;5031443;28;20025;-72
2022/06/07 09:12:09;;;;;;;56.75;35.60;;;;;;;17.04;76.25;101257.63;5030866;28;20025;-72
2022/06/07 09:14:53;;;;;;;61.13;36.95;;;;;;;17.12;75.67;101257.66;5028075;28;20113;-72
2022/06/07 09:17:38;;;;;;;60.33;35.47;;;;;;;17.14;75.20;101257.69;5030120;28;20026;-72
2022/06/07 09:20:06;;;;;;;56.63;36.50;;;;;;;17.14;73.61;101257.69;5029767;28;20364;-72
2022/06/07 09:27:37;;;;;;;59.50;36.75;;;;;;;17.33;77.03;101254.19;5079573;23;20123;-96
2022/06/07 09:33:55;;;;;;;60.63;34.83;;;;;;;17.55;75.18;101252.50;5060304;23;20115;-71
2022/06/07 09:36:20;;;;;;;49.13;31.42;;;;;;;17.60;73.15;101248.97;5049290;28;20025;-72
2022/06/07 09:38:58;;;;;;;58.05;33.85;;;;;;;17.62;75.01;101245.47;5048692;28;20025;-72
2022/06/07 09:41:49;;;;;;;51.65;32.60;;;;;;;17.70;78.15;101242.84;5046930;28;20123;-72
2022/06/07 09:44:35;;;;;;;50.55;31.50;;;;;;;17.75;74.57;101251.63;5045050;28;20041;-71
2022/06/07 09:47:19;;;;;;;48.00;31.73;;;;;;;17.79;73.99;101249.88;5038304;28;20029;-72
2022/06/07 09:49:50;;;;;;;50.85;31.63;;;;;;;17.80;74.22;101255.16;5044002;28;20037;-72
2022/06/07 09:52:24;;;;;;;51.00;32.13;;;;;;;17.81;73.24;101251.63;5043535;28;20028;-72
2022/06/07 09:55:04;;;;;;;50.20;33.55;;;;;;;17.81;73.01;101254.25;5049693;28;20094;-71
2022/06/07 09:57:37;;;;;;;50.47;32.15;;;;;;;17.86;75.89;101249.00;5042262;28;20416;-72
2022/06/07 10:00:04;;;;;;;46.65;31.85;;;;;;;17.85;71.42;101239.34;5034558;28;20049;-72
2022/06/07 10:02:38;;;;;;;39.17;29.02;;;;;;;17.81;68.77;101248.97;5043075;28;20041;-72
2022/06/07 10:05:28;;;;;;;35.60;26.27;;;;;;;17.79;70.14;101239.34;5041908;28;20037;-72
2022/06/07 10:08:19;;;;;;;32.92;26.27;;;;;;;17.75;70.67;101241.09;5037615;28;20101;-72
2022/06/07 10:10:47;;;;;;;36.78;25.38;;;;;;;17.73;69.88;101234.94;5043764;28;20035;-71
2022/06/07 10:13:22;;;;;;;37.03;26.40;;;;;;;17.76;69.29;101236.72;5039316;28;20049;-72
2022/06/07 10:16:13;;;;;;;37.15;27.52;;;;;;;17.83;69.99;101234.06;5037798;28;20305;-72
2022/06/07 10:19:16;;;;;;;36.15;26.50;;;;;;;17.85;70.45;101240.19;5050366;28;20029;-72
2022/06/07 10:21:50;;;;;;;37.33;26.48;;;;;;;17.84;68.02;101235.84;5048998;28;20284;-73
2022/06/07 10:24:31;;;;;;;36.25;25.48;;;;;;;17.86;70.26;101231.41;5049587;28;20059;-72
2022/06/07 10:27:23;;;;;;;31.90;24.48;;;;;;;17.91;69.99;101228.81;5027397;28;20029;-73
2022/06/07 10:30:15;;;;;;;32.00;23.42;;;;;;;17.94;69.41;101223.53;5027635;28;20025;-72
2022/06/07 10:33:08;;;;;;;31.63;22.20;;;;;;;18.03;69.84;101227.91;5030365;28;20409;-72
2022/06/07 10:36:29;;;;;;;28.00;20.85;;;;;;;18.09;70.66;101222.66;5029145;28;20037;-71
2022/06/07 10:39:12;;;;;;;30.38;20.00;;;;;;;18.11;68.57;101222.66;4988689;28;20050;-71
2022/06/07 10:41:58;;;;;;;29.30;19.77;;;;;;;18.10;68.24;101234.94;5026642;28;20500;-72
2022/06/07 10:44:29;;;;;;;32.00;22.92;;;;;;;18.04;67.53;101230.56;5030101;28;20035;-72
2022/06/07 10:46:55;;;;;;;34.45;26.42;;;;;;;18.03;67.47;101231.47;5029567;28;20104;-71
2022/06/07 10:49:20;;;;;;;33.83;24.67;;;;;;;18.01;65.83;101225.28;5029597;28;20025;-72
2022/06/07 10:54:54;;;;;;;35.28;24.52;;;;;;;18.12;68.18;101217.38;5030319;28;20044;-71
2022/06/07 10:57:34;;;;;;;38.63;27.05;;;;;;;18.25;68.71;101212.97;5030125;28;20067;-71
2022/06/07 11:00:14;;;;;;;30.55;20.90;;;;;;;18.32;68.65;101214.69;5028959;28;20033;-71
2022/06/07 11:02:49;;;;;;;32.13;23.65;;;;;;;18.44;67.52;101219.06;5029185;28;20041;-73
2022/06/07 11:11:23;;;;;;;23.83;16.20;;;;;;;18.54;65.73;101209.38;5030381;28;20084;-72
2022/06/07 11:13:56;;;;;;;24.95;17.40;;;;;;;18.49;63.87;101214.63;5030237;28;20124;-71
2022/06/07 11:16:39;;;;;;;22.85;16.77;;;;;;;18.45;66.04;101209.38;5029531;28;20120;-72
2022/06/07 11:19:05;;;;;;;18.52;13.80;;;;;;;18.44;65.16;101213.78;5030070;28;20485;-72
2022/06/07 11:21:36;;;;;;;20.40;13.68;;;;;;;18.48;65.96;101202.34;5030378;28;20026;-71
2022/06/07 11:24:19;;;;;;;18.67;13.13;;;;;;;18.53;65.70;101215.50;5029804;28;20452;-72
2022/06/07 11:27:07;;;;;;;19.15;13.18;;;;;;;18.52;64.49;101213.75;5029333;28;20485;-71
2022/06/07 11:29:33;;;;;;;15.88;12.32;;;;;;;18.51;62.45;101207.59;5025338;28;20535;-71
2022/06/07 11:32:02;;;;;;;17.88;12.52;;;;;;;18.56;62.87;101210.22;5031844;28;20041;-71
2022/06/07 11:34:37;;;;;;;19.15;11.32;;;;;;;18.59;64.79;101213.72;5049185;28;20035;-72
2022/06/07 11:37:09;;;;;;;18.23;11.10;;;;;;;18.66;64.75;101213.72;5035247;28;20516;-71
2022/06/07 11:39:40;;;;;;;13.60;10.77;;;;;;;18.68;63.85;101207.50;5035710;28;20510;-71
2022/06/07 11:42:17;;;;;;;14.75;9.52;;;;;;;18.70;64.35;101210.19;5053391;28;20033;-71
2022/06/07 11:44:43;;;;;;;15.70;9.55;;;;;;;18.71;62.57;101211.91;5053335;28;20400;-71
2022/06/07 11:47:11;;;;;;;15.07;9.45;;;;;;;18.70;63.58;101212.81;5034694;28;20025;-71
2022/06/07 11:49:40;;;;;;;15.18;9.15;;;;;;;18.74;63.25;101217.16;5040555;28;20036;-71